Terminal Aerodrome Forecast
Issued by NWS

Home | Current Version | Previous Version | Text Only | Print | Product List | Glossary On
Versions: 1 2 3 4 5 6 7 8 9 10 11 12 13 14 15 16 17 18
000
FTUS45 KRIW 292200 AAA
TAFCPR
TAF AMD
KCPR 292207Z 2922/3018 28012G18KT P6SM VCTS SCT050CB BKN100
     FM300030 VRB06KT P6SM VCTS SCT050CB BKN100
     FM300300 VRB06KT P6SM SCT090
     FM300900 24012G22KT P6SM BKN100=

USA.gov is the U.S. government's official web portal to all federal, state and local government web resources and services.